Time;durP1;ratioP1;P1;durP2;ratioP2;P2;SDS_P1;SDS_P2;PMS_P1;PMS_P2;Temp;Humidity;BMP_temperature;BMP_pressure;BME280_temperature;BME280_humidity;BME280_pressure;Samples;Min_cycle;Max_cycle;Signal;HPM_P1;HPM_P2
2022/04/01 00:00:39;;;;;;;1.30;0.40;;;;;;;;;;5040054;28;20037;-66
2022/04/01 00:03:06;;;;;;;1.05;0.40;;;;;;;;;;5042413;28;20139;-64
2022/04/01 00:05:33;;;;;;;1.60;0.50;;;;;;;;;;5044381;28;20054;-63
2022/04/01 00:08:00;;;;;;;1.58;0.50;;;;;;;;;;5047811;28;20259;-65
2022/04/01 00:10:27;;;;;;;1.30;0.50;;;;;;;;;;5042013;28;20075;-65
2022/04/01 00:12:55;;;;;;;2.80;0.40;;;;;;;;;;5032890;28;20835;-65
2022/04/01 00:15:22;;;;;;;0.93;0.50;;;;;;;;;;5042321;28;21031;-65
2022/04/01 00:17:48;;;;;;;1.27;0.52;;;;;;;;;;5040784;28;20045;-65
2022/04/01 00:20:18;;;;;;;4.07;1.15;;;;;;;;;;5041881;28;20083;-64
2022/04/01 00:22:45;;;;;;;1.13;0.40;;;;;;;;;;5040804;28;20048;-64
2022/04/01 00:25:12;;;;;;;2.78;0.50;;;;;;;;;;5023766;28;20102;-64
2022/04/01 00:27:38;;;;;;;1.90;0.50;;;;;;;;;;5020126;28;20044;-64
2022/04/01 00:30:06;;;;;;;0.77;0.32;;;;;;;;;;5042500;28;20040;-65
2022/04/01 00:32:33;;;;;;;0.95;0.40;;;;;;;;;;5018259;28;20046;-65
2022/04/01 00:34:59;;;;;;;1.20;0.50;;;;;;;;;;5018102;28;20033;-65
2022/04/01 00:37:26;;;;;;;2.33;0.70;;;;;;;;;;5037050;28;20053;-66
2022/04/01 00:39:53;;;;;;;3.75;0.70;;;;;;;;;;5040202;28;20041;-65
2022/04/01 00:42:20;;;;;;;1.00;0.40;;;;;;;;;;5032415;28;20049;-65
2022/04/01 00:44:47;;;;;;;0.65;0.40;;;;;;;;;;5041448;28;20041;-65
2022/04/01 00:47:14;;;;;;;2.10;0.68;;;;;;;;;;5042339;28;21740;-65
2022/04/01 00:49:43;;;;;;;0.90;0.45;;;;;;;;;;5037325;28;20770;-67
2022/04/01 00:52:11;;;;;;;1.35;0.50;;;;;;;;;;5035677;28;20568;-66
2022/04/01 00:54:38;;;;;;;2.20;0.50;;;;;;;;;;5043271;28;20043;-65
2022/04/01 00:57:06;;;;;;;1.02;0.40;;;;;;;;;;5040920;28;20048;-66
2022/04/01 00:59:33;;;;;;;1.08;0.47;;;;;;;;;;5032915;28;20717;-65
2022/04/01 01:02:00;;;;;;;3.17;0.60;;;;;;;;;;5026217;28;20084;-66
2022/04/01 01:04:27;;;;;;;1.20;0.50;;;;;;;;;;5054611;28;20107;-66
2022/04/01 01:06:58;;;;;;;3.80;0.60;;;;;;;;;;5041014;28;20595;-66
2022/04/01 01:09:26;;;;;;;1.15;0.40;;;;;;;;;;5042642;28;20037;-65
2022/04/01 01:11:53;;;;;;;2.50;0.55;;;;;;;;;;5057809;28;20127;-67
2022/04/01 01:14:26;;;;;;;10.98;0.60;;;;;;;;;;5043666;28;20037;-65
2022/04/01 01:16:53;;;;;;;5.05;0.65;;;;;;;;;;5046351;28;20044;-65
2022/04/01 01:19:20;;;;;;;0.95;0.40;;;;;;;;;;5048855;28;20053;-66
2022/04/01 01:21:51;;;;;;;2.60;0.43;;;;;;;;;;5043763;28;20040;-65
2022/04/01 01:24:18;;;;;;;0.57;0.40;;;;;;;;;;5041780;28;20037;-65
2022/04/01 01:26:49;;;;;;;1.75;0.47;;;;;;;;;;5039495;28;20032;-64
2022/04/01 01:29:25;;;;;;;0.98;0.50;;;;;;;;;;5041572;28;20041;-64
2022/04/01 01:31:52;;;;;;;0.73;0.40;;;;;;;;;;5046785;28;21833;-64
2022/04/01 01:34:20;;;;;;;1.05;0.52;;;;;;;;;;5046374;28;20370;-65
2022/04/01 01:36:47;;;;;;;1.60;0.40;;;;;;;;;;5047109;28;20044;-65
2022/04/01 01:39:14;;;;;;;1.27;0.50;;;;;;;;;;5044880;28;20152;-64
2022/04/01 01:41:42;;;;;;;1.05;0.40;;;;;;;;;;5044081;28;20045;-64
2022/04/01 01:44:10;;;;;;;0.52;0.40;;;;;;;;;;5047149;28;20037;-65
2022/04/01 01:46:37;;;;;;;1.88;0.60;;;;;;;;;;5045633;28;20120;-64
2022/04/01 01:49:03;;;;;;;1.38;0.50;;;;;;;;;;5046995;28;20061;-65
2022/04/01 01:57:02;;;;;;;1.65;0.50;;;;;;;;;;5045168;28;20110;-65
2022/04/01 01:59:28;;;;;;;0.80;0.40;;;;;;;;;;5042980;28;20049;-64
2022/04/01 02:01:55;;;;;;;2.00;0.55;;;;;;;;;;5045094;28;20057;-65
2022/04/01 02:04:25;;;;;;;1.08;0.45;;;;;;;;;;5043108;28;20036;-65
2022/04/01 02:06:51;;;;;;;3.33;0.60;;;;;;;;;;5044369;28;20086;-65
2022/04/01 02:09:18;;;;;;;1.45;0.50;;;;;;;;;;5034698;28;20037;-65
2022/04/01 02:11:45;;;;;;;1.70;0.70;;;;;;;;;;5044473;28;20044;-65
2022/04/01 02:14:12;;;;;;;1.85;0.50;;;;;;;;;;5045854;28;20037;-65
2022/04/01 02:16:40;;;;;;;1.65;0.50;;;;;;;;;;5041864;28;20060;-64
2022/04/01 02:19:09;;;;;;;2.30;0.60;;;;;;;;;;5027060;28;20120;-64
2022/04/01 02:21:36;;;;;;;3.50;0.60;;;;;;;;;;5020918;28;20478;-66
2022/04/01 02:24:06;;;;;;;1.85;0.70;;;;;;;;;;5043086;28;20037;-65
2022/04/01 02:26:32;;;;;;;2.60;0.80;;;;;;;;;;5041940;28;20126;-64
2022/04/01 02:29:00;;;;;;;1.70;0.50;;;;;;;;;;5044006;28;20082;-64
2022/04/01 02:31:27;;;;;;;2.50;0.70;;;;;;;;;;5022276;28;20034;-65
2022/04/01 02:33:54;;;;;;;1.13;0.50;;;;;;;;;;5044769;28;20190;-64
2022/04/01 02:36:20;;;;;;;4.97;0.70;;;;;;;;;;5042525;28;20375;-63
2022/04/01 02:38:49;;;;;;;0.73;0.40;;;;;;;;;;5043938;28;20056;-65
2022/04/01 02:41:16;;;;;;;3.92;0.60;;;;;;;;;;5044294;28;20123;-64
2022/04/01 02:43:43;;;;;;;2.28;0.52;;;;;;;;;;5042181;28;20524;-65
2022/04/01 02:46:10;;;;;;;2.67;0.60;;;;;;;;;;5033955;28;20398;-65
2022/04/01 02:48:37;;;;;;;3.03;0.70;;;;;;;;;;5040895;28;20450;-65
2022/04/01 02:51:03;;;;;;;1.55;0.60;;;;;;;;;;5043105;28;20040;-65
2022/04/01 02:53:30;;;;;;;1.65;0.57;;;;;;;;;;5043594;28;20041;-65
2022/04/01 02:55:57;;;;;;;1.73;0.50;;;;;;;;;;5043755;28;20051;-65
2022/04/01 02:58:23;;;;;;;1.60;0.50;;;;;;;;;;5033691;28;20049;-64
2022/04/01 03:00:50;;;;;;;2.03;0.55;;;;;;;;;;5043012;28;21647;-65
2022/04/01 03:03:17;;;;;;;3.42;0.57;;;;;;;;;;5025686;28;20088;-64
2022/04/01 03:05:44;;;;;;;1.38;0.50;;;;;;;;;;5022746;28;20037;-65
2022/04/01 03:08:10;;;;;;;1.35;0.50;;;;;;;;;;5035349;28;20055;-65
2022/04/01 03:10:38;;;;;;;2.50;0.60;;;;;;;;;;5032495;28;20044;-66
2022/04/01 03:13:07;;;;;;;2.45;0.70;;;;;;;;;;5044481;28;20036;-66
2022/04/01 03:15:34;;;;;;;2.50;0.68;;;;;;;;;;5031506;28;20053;-67
2022/04/01 03:18:04;;;;;;;2.90;0.70;;;;;;;;;;5042317;28;20049;-65
2022/04/01 03:20:35;;;;;;;1.48;0.50;;;;;;;;;;5029609;28;20482;-63
2022/04/01 03:23:02;;;;;;;2.78;0.80;;;;;;;;;;5035575;28;20093;-65
2022/04/01 03:25:32;;;;;;;2.70;0.75;;;;;;;;;;5019811;28;20048;-65
2022/04/01 03:28:01;;;;;;;3.58;0.90;;;;;;;;;;5036782;28;20045;-65
2022/04/01 03:30:28;;;;;;;2.58;0.77;;;;;;;;;;5045196;28;20093;-65
2022/04/01 03:32:55;;;;;;;2.05;0.65;;;;;;;;;;5043454;28;20113;-65
2022/04/01 03:35:21;;;;;;;1.75;0.60;;;;;;;;;;5045228;28;20032;-65
2022/04/01 03:37:51;;;;;;;2.30;0.70;;;;;;;;;;5056727;28;20501;-65
2022/04/01 03:40:18;;;;;;;2.95;0.90;;;;;;;;;;5045735;28;20044;-66
2022/04/01 03:42:46;;;;;;;4.82;1.15;;;;;;;;;;5047331;28;20134;-65
2022/04/01 03:45:14;;;;;;;4.05;0.82;;;;;;;;;;5046868;28;20055;-65
2022/04/01 03:47:47;;;;;;;2.00;0.70;;;;;;;;;;5044696;28;20040;-66
2022/04/01 03:50:13;;;;;;;3.97;0.73;;;;;;;;;;5044254;28;20220;-65
2022/04/01 03:52:43;;;;;;;5.45;0.80;;;;;;;;;;5042078;28;20057;-65
2022/04/01 03:55:10;;;;;;;2.72;0.73;;;;;;;;;;5041033;28;20035;-65
2022/04/01 03:57:38;;;;;;;1.92;0.60;;;;;;;;;;5040305;28;20302;-65
2022/04/01 04:00:07;;;;;;;5.38;0.82;;;;;;;;;;5041777;28;20041;-65
2022/04/01 04:02:35;;;;;;;2.70;0.80;;;;;;;;;;5036914;28;20067;-66
2022/04/01 04:05:03;;;;;;;2.05;0.63;;;;;;;;;;5040566;28;20136;-65
2022/04/01 04:07:52;;;;;;;2.65;0.75;;;;;;;;;;5055967;28;20047;-65
2022/04/01 04:10:18;;;;;;;3.00;0.70;;;;;;;;;;5042208;28;20882;-65
2022/04/01 04:12:46;;;;;;;1.95;0.63;;;;;;;;;;5042127;28;21812;-65
2022/04/01 04:15:12;;;;;;;1.98;0.60;;;;;;;;;;5045080;28;20059;-65
2022/04/01 04:17:39;;;;;;;3.53;0.60;;;;;;;;;;5045205;28;20048;-64
2022/04/01 04:20:09;;;;;;;2.53;0.80;;;;;;;;;;5026656;28;20473;-64
2022/04/01 04:23:02;;;;;;;3.28;0.80;;;;;;;;;;5018718;28;22000;-64
2022/04/01 04:25:35;;;;;;;3.05;0.85;;;;;;;;;;5021412;28;20056;-63
2022/04/01 04:28:02;;;;;;;2.78;0.80;;;;;;;;;;5021971;28;20056;-64
2022/04/01 04:30:33;;;;;;;1.50;0.50;;;;;;;;;;5023891;28;20041;-65
2022/04/01 04:33:04;;;;;;;4.10;0.60;;;;;;;;;;5021884;28;20037;-65
2022/04/01 04:35:32;;;;;;;2.45;0.77;;;;;;;;;;5021837;28;20076;-64
2022/04/01 04:37:59;;;;;;;1.77;0.60;;;;;;;;;;5022361;28;20045;-64
2022/04/01 04:40:28;;;;;;;1.63;0.50;;;;;;;;;;5021854;28;20056;-64
2022/04/01 04:42:55;;;;;;;1.83;0.60;;;;;;;;;;5021954;28;20052;-64
2022/04/01 04:45:23;;;;;;;2.60;0.60;;;;;;;;;;5021306;28;20045;-64
2022/04/01 04:47:50;;;;;;;2.30;0.70;;;;;;;;;;5026301;28;21917;-65
2022/04/01 04:50:17;;;;;;;1.75;0.65;;;;;;;;;;5026597;28;20119;-65
2022/04/01 04:52:54;;;;;;;3.05;0.80;;;;;;;;;;5025401;28;20072;-65
2022/04/01 04:55:22;;;;;;;1.65;0.50;;;;;;;;;;5025551;28;20046;-65
2022/04/01 04:57:50;;;;;;;1.65;0.50;;;;;;;;;;5040654;28;20519;-65
2022/04/01 05:00:21;;;;;;;2.60;0.70;;;;;;;;;;5040442;28;20184;-65
2022/04/01 05:03:06;;;;;;;3.25;1.05;;;;;;;;;;5025862;28;20128;-65
2022/04/01 05:05:38;;;;;;;2.40;0.77;;;;;;;;;;5026056;28;20095;-64
2022/04/01 05:08:23;;;;;;;3.88;1.00;;;;;;;;;;5026900;28;20056;-64
2022/04/01 05:10:50;;;;;;;3.65;0.82;;;;;;;;;;5025100;28;20037;-65
2022/04/01 05:13:17;;;;;;;2.95;0.75;;;;;;;;;;5025913;28;20060;-66
2022/04/01 05:15:47;;;;;;;2.30;0.80;;;;;;;;;;5024881;28;20593;-65
2022/04/01 05:18:20;;;;;;;2.53;0.80;;;;;;;;;;5037899;28;20049;-64
2022/04/01 05:20:47;;;;;;;;;;;;;;;;;;5026040;28;20123;-65
2022/04/01 05:23:21;;;;;;;2.75;0.60;;;;;;;;;;5026479;28;19917;-64
2022/04/01 05:25:51;;;;;;;2.13;0.57;;;;;;;;;;5024768;28;20029;-64
2022/04/01 05:28:22;;;;;;;2.25;0.60;;;;;;;;;;5026357;28;20037;-64
2022/04/01 05:30:54;;;;;;;3.05;0.57;;;;;;;;;;5025213;28;20623;-65
2022/04/01 05:33:22;;;;;;;1.55;0.57;;;;;;;;;;5026421;28;20095;-63
2022/04/01 05:35:51;;;;;;;3.30;0.70;;;;;;;;;;5025036;28;20102;-63
2022/04/01 05:38:22;;;;;;;11.95;1.33;;;;;;;;;;5026644;28;20132;-64
2022/04/01 05:40:50;;;;;;;13.02;1.40;;;;;;;;;;5026214;28;20048;-63
2022/04/01 05:43:17;;;;;;;3.97;0.68;;;;;;;;;;5027275;28;20131;-63
2022/04/01 05:45:44;;;;;;;4.28;1.00;;;;;;;;;;5025148;28;20076;-64
2022/04/01 05:48:11;;;;;;;3.60;0.85;;;;;;;;;;5025876;28;20049;-63
2022/04/01 05:50:39;;;;;;;4.60;0.82;;;;;;;;;;5024695;28;20061;-63
2022/04/01 05:53:07;;;;;;;3.08;0.90;;;;;;;;;;5028912;28;20196;-63
2022/04/01 05:55:35;;;;;;;3.60;0.70;;;;;;;;;;5025977;28;20439;-63
2022/04/01 05:58:05;;;;;;;2.85;0.80;;;;;;;;;;5025498;28;20972;-64
2022/04/01 06:00:42;;;;;;;8.05;0.95;;;;;;;;;;5025221;28;20037;-64
2022/04/01 06:03:12;;;;;;;2.58;0.73;;;;;;;;;;5039392;28;20037;-64
2022/04/01 06:05:59;;;;;;;5.10;0.95;;;;;;;;;;5023762;28;20040;-64
2022/04/01 06:08:48;;;;;;;3.75;0.88;;;;;;;;;;5023344;28;20026;-63
2022/04/01 06:11:37;;;;;;;2.42;0.80;;;;;;;;;;5026291;28;20045;-62
2022/04/01 06:14:06;;;;;;;3.33;0.90;;;;;;;;;;5024938;28;20041;-63
2022/04/01 06:16:48;;;;;;;3.75;0.88;;;;;;;;;;5022395;28;20065;-63
2022/04/01 06:19:15;;;;;;;2.38;0.80;;;;;;;;;;5025206;28;20107;-63
2022/04/01 06:21:49;;;;;;;2.83;0.70;;;;;;;;;;5023505;28;20604;-63
2022/04/01 06:24:34;;;;;;;3.97;0.82;;;;;;;;;;5024246;28;20045;-63
2022/04/01 06:27:02;;;;;;;3.40;0.88;;;;;;;;;;5022085;28;20049;-64
2022/04/01 06:29:31;;;;;;;6.43;0.98;;;;;;;;;;5022209;28;20465;-65
2022/04/01 06:32:05;;;;;;;3.70;0.95;;;;;;;;;;5023218;28;20049;-65
2022/04/01 06:34:52;;;;;;;3.35;1.00;;;;;;;;;;5022421;28;20060;-65
2022/04/01 06:37:29;;;;;;;4.05;0.80;;;;;;;;;;5024094;28;20069;-64
2022/04/01 06:40:07;;;;;;;1.77;0.55;;;;;;;;;;5023503;28;20503;-63
2022/04/01 06:42:34;;;;;;;4.15;0.70;;;;;;;;;;5023344;28;20056;-64
2022/04/01 06:45:01;;;;;;;5.72;0.90;;;;;;;;;;5022663;28;20054;-64
2022/04/01 06:47:28;;;;;;;2.58;0.73;;;;;;;;;;5021651;28;20535;-64
2022/04/01 06:49:55;;;;;;;6.03;0.90;;;;;;;;;;5021234;28;20569;-64
2022/04/01 06:52:22;;;;;;;5.07;1.15;;;;;;;;;;5022062;28;20072;-64
2022/04/01 06:54:49;;;;;;;6.03;0.90;;;;;;;;;;5021870;28;20705;-64
2022/04/01 06:57:16;;;;;;;5.38;1.00;;;;;;;;;;5023413;28;20053;-64
2022/04/01 06:59:43;;;;;;;5.47;1.10;;;;;;;;;;5020561;28;20053;-63
2022/04/01 07:02:10;;;;;;;13.30;1.30;;;;;;;;;;5024391;28;20137;-64
2022/04/01 07:04:36;;;;;;;5.68;1.00;;;;;;;;;;5023998;28;20120;-63
2022/04/01 07:07:03;;;;;;;10.02;1.45;;;;;;;;;;5023779;28;20444;-64
2022/04/01 07:09:30;;;;;;;5.28;1.20;;;;;;;;;;5013912;28;20041;-64
2022/04/01 07:12:01;;;;;;;15.35;1.38;;;;;;;;;;5039506;28;20373;-64
2022/04/01 07:14:33;;;;;;;7.28;0.95;;;;;;;;;;5022025;28;20067;-64
2022/04/01 07:17:00;;;;;;;6.78;0.90;;;;;;;;;;5022799;28;20041;-64
2022/04/01 07:19:27;;;;;;;2.75;0.77;;;;;;;;;;5021827;28;20651;-64
2022/04/01 07:21:54;;;;;;;4.90;0.95;;;;;;;;;;5024077;28;20436;-64
2022/04/01 07:24:20;;;;;;;7.82;1.05;;;;;;;;;;5035549;28;20029;-64
2022/04/01 07:26:47;;;;;;;2.70;0.90;;;;;;;;;;5023388;28;20033;-64
2022/04/01 07:29:14;;;;;;;4.43;1.05;;;;;;;;;;5023307;28;20164;-65
2022/04/01 07:34:37;;;;;;;4.60;0.80;;;;;;;;;;5023718;28;20127;-64
2022/04/01 07:37:08;;;;;;;4.43;0.82;;;;;;;;;;5023453;28;20514;-64
2022/04/01 07:39:35;;;;;;;2.88;0.88;;;;;;;;;;5022930;28;20064;-63
2022/04/01 07:42:02;;;;;;;2.95;0.90;;;;;;;;;;5024764;28;20324;-63
2022/04/01 07:44:29;;;;;;;2.92;0.80;;;;;;;;;;5025090;28;20045;-63
2022/04/01 07:46:56;;;;;;;2.38;0.80;;;;;;;;;;5024021;28;20133;-63
2022/04/01 07:49:23;;;;;;;4.20;0.90;;;;;;;;;;5038253;28;20064;-64
2022/04/01 07:51:50;;;;;;;7.10;1.05;;;;;;;;;;5023434;28;20766;-64
2022/04/01 07:54:17;;;;;;;3.67;0.88;;;;;;;;;;5025454;28;20840;-63
2022/04/01 07:56:44;;;;;;;8.13;1.00;;;;;;;;;;5025047;28;20044;-63
2022/04/01 07:59:15;;;;;;;3.28;0.98;;;;;;;;;;5025468;28;20041;-63
2022/04/01 08:01:42;;;;;;;3.97;1.00;;;;;;;;;;5025326;28;20041;-63
2022/04/01 08:04:09;;;;;;;3.97;0.70;;;;;;;;;;5025794;28;20060;-65
2022/04/01 08:06:36;;;;;;;2.38;0.77;;;;;;;;;;5023577;28;20269;-64
2022/04/01 08:09:03;;;;;;;3.30;0.85;;;;;;;;;;5024279;28;20037;-64
2022/04/01 08:11:29;;;;;;;2.78;0.90;;;;;;;;;;5023222;28;20110;-64
2022/04/01 08:13:56;;;;;;;3.30;0.90;;;;;;;;;;5024231;28;20120;-63
2022/04/01 08:16:23;;;;;;;7.80;1.00;;;;;;;;;;5023789;28;20511;-64
2022/04/01 08:18:50;;;;;;;2.70;0.80;;;;;;;;;;5023573;28;20350;-64
2022/04/01 08:21:17;;;;;;;2.55;0.80;;;;;;;;;;5023200;28;20049;-64
2022/04/01 08:23:44;;;;;;;2.92;0.90;;;;;;;;;;5022067;28;20881;-63
2022/04/01 08:26:12;;;;;;;3.92;0.82;;;;;;;;;;5023966;28;20080;-64
2022/04/01 08:28:39;;;;;;;3.20;0.85;;;;;;;;;;5022842;28;21235;-63
2022/04/01 08:31:09;;;;;;;3.05;1.20;;;;;;;;;;5023649;28;20029;-64
2022/04/01 08:33:36;;;;;;;7.93;0.88;;;;;;;;;;5023747;28;20042;-64
2022/04/01 08:36:03;;;;;;;6.63;1.10;;;;;;;;;;5023272;28;20033;-64
2022/04/01 08:38:30;;;;;;;5.80;0.98;;;;;;;;;;5022720;28;20052;-65
2022/04/01 08:40:57;;;;;;;5.90;1.02;;;;;;;;;;5039766;28;20029;-64
2022/04/01 08:43:26;;;;;;;2.80;0.90;;;;;;;;;;5024041;28;20508;-64
2022/04/01 08:45:52;;;;;;;2.47;0.82;;;;;;;;;;5023828;28;21367;-64
2022/04/01 08:48:19;;;;;;;4.75;1.10;;;;;;;;;;5023461;28;20037;-64
2022/04/01 08:50:46;;;;;;;7.07;1.20;;;;;;;;;;5022955;28;20123;-64
2022/04/01 08:53:13;;;;;;;2.92;0.90;;;;;;;;;;5024786;28;20034;-64
2022/04/01 08:55:40;;;;;;;5.68;1.10;;;;;;;;;;5023177;28;20057;-64
2022/04/01 08:58:08;;;;;;;5.53;0.93;;;;;;;;;;5023138;28;20049;-64
2022/04/01 09:00:35;;;;;;;2.40;0.80;;;;;;;;;;5020092;28;20034;-64
2022/04/01 09:03:04;;;;;;;3.42;1.00;;;;;;;;;;5021541;28;20121;-64
2022/04/01 09:05:31;;;;;;;3.35;1.20;;;;;;;;;;5021875;28;20058;-65
2022/04/01 09:08:04;;;;;;;4.05;1.05;;;;;;;;;;5022732;28;20454;-64
2022/04/01 09:10:31;;;;;;;3.55;0.90;;;;;;;;;;5021283;28;20050;-64
2022/04/01 09:12:58;;;;;;;6.45;0.90;;;;;;;;;;5022739;28;20033;-64
2022/04/01 09:15:39;;;;;;;1.92;0.77;;;;;;;;;;5023187;28;20391;-64
2022/04/01 09:18:06;;;;;;;4.22;0.95;;;;;;;;;;5021264;28;21789;-64
2022/04/01 09:20:53;;;;;;;2.08;0.70;;;;;;;;;;5021780;28;20038;-64
2022/04/01 09:23:24;;;;;;;6.32;0.98;;;;;;;;;;5021051;28;20045;-65
2022/04/01 09:25:52;;;;;;;10.55;0.98;;;;;;;;;;5023408;28;20521;-63
2022/04/01 09:28:39;;;;;;;3.20;0.77;;;;;;;;;;5023101;28;20041;-62
2022/04/01 09:31:13;;;;;;;6.32;0.70;;;;;;;;;;5024804;28;20064;-63
2022/04/01 09:33:50;;;;;;;3.55;0.80;;;;;;;;;;5027903;28;20213;-64
2022/04/01 09:36:18;;;;;;;2.28;0.70;;;;;;;;;;5027034;28;20059;-63
2022/04/01 09:38:59;;;;;;;2.97;0.80;;;;;;;;;;5025953;28;20052;-63
2022/04/01 09:41:31;;;;;;;2.85;0.95;;;;;;;;;;5026614;28;20076;-63
2022/04/01 09:44:10;;;;;;;2.42;0.75;;;;;;;;;;5025795;28;20520;-63
2022/04/01 09:46:41;;;;;;;2.70;0.75;;;;;;;;;;5036434;28;20056;-63
2022/04/01 09:49:07;;;;;;;2.60;0.80;;;;;;;;;;5024794;28;20030;-63
2022/04/01 09:51:34;;;;;;;2.55;0.70;;;;;;;;;;5024809;28;20120;-64
2022/04/01 09:54:04;;;;;;;3.08;1.02;;;;;;;;;;5026890;28;20409;-64
2022/04/01 09:56:38;;;;;;;1.77;0.50;;;;;;;;;;5024806;28;20124;-64
2022/04/01 09:59:05;;;;;;;1.98;0.63;;;;;;;;;;5024579;28;20072;-63
2022/04/01 10:01:34;;;;;;;2.85;0.77;;;;;;;;;;5024322;28;21659;-64
2022/04/01 10:04:01;;;;;;;2.70;0.82;;;;;;;;;;5025698;28;20052;-63
2022/04/01 10:06:28;;;;;;;2.50;0.68;;;;;;;;;;5024149;28;20383;-63
2022/04/01 10:08:56;;;;;;;2.83;0.63;;;;;;;;;;5025283;28;20452;-64
2022/04/01 10:11:23;;;;;;;2.15;0.60;;;;;;;;;;5026688;28;20431;-64
2022/04/01 10:13:51;;;;;;;2.40;0.60;;;;;;;;;;5026043;28;20037;-63
2022/04/01 10:16:21;;;;;;;3.97;0.77;;;;;;;;;;5026802;28;20118;-63
2022/04/01 10:18:48;;;;;;;4.82;0.77;;;;;;;;;;5025680;28;20379;-63
2022/04/01 10:21:19;;;;;;;2.30;0.73;;;;;;;;;;5027112;28;20095;-64
2022/04/01 10:23:49;;;;;;;1.88;0.55;;;;;;;;;;5025086;28;20444;-64
2022/04/01 10:26:16;;;;;;;2.38;0.60;;;;;;;;;;5025858;28;20053;-64
2022/04/01 10:28:47;;;;;;;1.83;0.63;;;;;;;;;;5025226;28;20689;-65
2022/04/01 10:31:15;;;;;;;4.78;0.70;;;;;;;;;;5024396;28;20041;-64
2022/04/01 10:33:42;;;;;;;2.08;0.63;;;;;;;;;;5024445;28;20072;-63
2022/04/01 10:36:29;;;;;;;1.95;0.60;;;;;;;;;;5034639;28;20084;-63
2022/04/01 10:39:06;;;;;;;1.55;0.63;;;;;;;;;;5023520;28;20386;-63
2022/04/01 10:41:33;;;;;;;3.72;0.90;;;;;;;;;;5022954;28;20113;-63
2022/04/01 10:44:03;;;;;;;3.05;0.70;;;;;;;;;;5023881;28;20037;-64
2022/04/01 10:46:30;;;;;;;1.52;0.60;;;;;;;;;;5022601;28;20090;-64
2022/04/01 10:52:18;;;;;;;2.47;0.60;;;;;;;;;;4966593;28;20472;-64
2022/04/01 10:54:46;;;;;;;2.63;0.70;;;;;;;;;;5025732;28;20570;-64
2022/04/01 10:57:34;;;;;;;6.22;0.82;;;;;;;;;;5024374;28;20128;-63
2022/04/01 11:00:02;;;;;;;2.88;0.88;;;;;;;;;;5022035;28;20490;-63
2022/04/01 11:02:29;;;;;;;4.07;0.80;;;;;;;;;;5024009;28;20045;-63
2022/04/01 11:04:55;;;;;;;3.78;0.82;;;;;;;;;;5024620;28;20045;-63
2022/04/01 11:07:22;;;;;;;4.95;0.70;;;;;;;;;;5022232;28;20056;-63
2022/04/01 11:09:56;;;;;;;2.38;0.70;;;;;;;;;;5024307;28;20061;-64
2022/04/01 11:12:25;;;;;;;2.40;0.65;;;;;;;;;;5024362;28;20045;-62
2022/04/01 11:14:55;;;;;;;1.92;0.70;;;;;;;;;;5024710;28;20064;-64
2022/04/01 11:17:26;;;;;;;2.35;0.60;;;;;;;;;;5023898;28;20058;-64
2022/04/01 11:20:07;;;;;;;3.05;0.70;;;;;;;;;;5024190;28;20123;-63
2022/04/01 11:22:57;;;;;;;2.92;0.90;;;;;;;;;;5023080;28;20085;-65
2022/04/01 11:25:24;;;;;;;1.45;0.55;;;;;;;;;;5023765;28;20048;-64
2022/04/01 11:28:08;;;;;;;2.47;0.80;;;;;;;;;;5023303;28;20041;-64
2022/04/01 11:30:36;;;;;;;3.33;0.73;;;;;;;;;;5022845;28;20044;-64
2022/04/01 11:33:04;;;;;;;2.88;0.80;;;;;;;;;;5023620;28;20446;-64
2022/04/01 11:35:31;;;;;;;3.45;0.85;;;;;;;;;;5022380;28;20030;-64
2022/04/01 11:37:59;;;;;;;3.45;0.68;;;;;;;;;;5038694;28;20053;-64
2022/04/01 11:40:27;;;;;;;6.35;0.90;;;;;;;;;;5022013;28;20065;-64
2022/04/01 11:43:07;;;;;;;6.57;0.98;;;;;;;;;;5022754;28;20528;-65
2022/04/01 11:45:35;;;;;;;1.80;0.60;;;;;;;;;;5022092;28;20101;-62
2022/04/01 11:48:02;;;;;;;3.42;0.80;;;;;;;;;;5023420;28;20591;-64
2022/04/01 11:50:29;;;;;;;5.30;1.10;;;;;;;;;;5022527;28;20056;-64
2022/04/01 11:52:57;;;;;;;2.63;0.65;;;;;;;;;;5023055;28;20040;-63
2022/04/01 11:55:28;;;;;;;1.67;0.60;;;;;;;;;;5021227;28;20048;-64
2022/04/01 11:57:55;;;;;;;2.17;0.75;;;;;;;;;;5023410;28;20152;-65
2022/04/01 12:00:24;;;;;;;2.80;0.88;;;;;;;;;;5022195;28;20052;-64
2022/04/01 12:02:51;;;;;;;2.05;0.68;;;;;;;;;;5038601;28;20111;-62
2022/04/01 12:05:18;;;;;;;9.35;0.93;;;;;;;;;;5022969;28;20042;-63
2022/04/01 12:10:40;;;;;;;6.93;1.10;;;;;;;;;;5021654;28;20113;-63
2022/04/01 12:13:09;;;;;;;4.93;0.98;;;;;;;;;;5022745;28;20587;-64
2022/04/01 12:15:38;;;;;;;1.90;0.60;;;;;;;;;;5021613;28;20064;-63
2022/04/01 12:18:11;;;;;;;6.35;1.35;;;;;;;;;;5021457;28;20048;-63
2022/04/01 12:20:41;;;;;;;9.93;1.30;;;;;;;;;;5023009;28;20107;-63
2022/04/01 12:23:08;;;;;;;2.08;0.80;;;;;;;;;;5022429;28;20045;-64
2022/04/01 12:25:36;;;;;;;3.30;1.02;;;;;;;;;;5020901;28;20072;-63
2022/04/01 12:28:11;;;;;;;7.05;1.00;;;;;;;;;;5021707;28;20103;-63
2022/04/01 12:30:39;;;;;;;11.52;3.10;;;;;;;;;;5023229;28;20037;-63
2022/04/01 12:33:07;;;;;;;4.53;1.10;;;;;;;;;;5025270;28;20033;-63
2022/04/01 12:35:34;;;;;;;7.55;1.38;;;;;;;;;;5022925;28;20056;-64
2022/04/01 12:38:19;;;;;;;4.15;1.48;;;;;;;;;;5025018;28;20154;-64
2022/04/01 12:40:46;;;;;;;8.15;1.48;;;;;;;;;;5026210;28;20049;-64
2022/04/01 12:43:29;;;;;;;12.35;1.20;;;;;;;;;;5026699;28;20148;-62
2022/04/01 12:45:59;;;;;;;11.52;2.10;;;;;;;;;;5023462;28;20156;-64
2022/04/01 12:48:27;;;;;;;3.15;1.10;;;;;;;;;;5035135;28;20072;-64
2022/04/01 12:50:57;;;;;;;7.07;1.75;;;;;;;;;;5041143;28;20037;-64
2022/04/01 12:53:24;;;;;;;12.23;1.88;;;;;;;;;;5036264;28;20045;-64
2022/04/01 12:55:50;;;;;;;9.43;1.52;;;;;;;;;;5022981;28;20119;-64
2022/04/01 12:58:17;;;;;;;9.13;1.50;;;;;;;;;;5023126;28;20095;-64
2022/04/01 13:00:44;;;;;;;6.75;1.15;;;;;;;;;;5022929;28;20080;-64
2022/04/01 13:03:11;;;;;;;18.45;1.88;;;;;;;;;;5023145;28;20044;-64
2022/04/01 13:05:37;;;;;;;6.93;1.83;;;;;;;;;;5022477;28;20038;-63
2022/04/01 13:08:09;;;;;;;6.22;1.38;;;;;;;;;;5027825;28;20058;-64
2022/04/01 13:10:35;;;;;;;6.28;1.55;;;;;;;;;;5029933;28;20124;-63
2022/04/01 13:13:16;;;;;;;20.75;1.90;;;;;;;;;;5028463;28;20070;-63
2022/04/01 13:15:49;;;;;;;6.57;1.85;;;;;;;;;;5026837;28;20526;-64
2022/04/01 13:18:23;;;;;;;7.20;1.83;;;;;;;;;;5044311;28;20154;-63
2022/04/01 13:20:50;;;;;;;4.63;1.67;;;;;;;;;;5042398;28;20045;-64
2022/04/01 13:23:17;;;;;;;15.27;2.17;;;;;;;;;;5040931;28;20037;-64
2022/04/01 13:25:43;;;;;;;16.10;2.13;;;;;;;;;;5029853;28;20044;-64
2022/04/01 13:28:11;;;;;;;4.85;1.40;;;;;;;;;;5028283;28;20412;-65
2022/04/01 13:30:38;;;;;;;5.40;1.20;;;;;;;;;;5025623;28;20049;-64
2022/04/01 13:33:05;;;;;;;14.93;1.90;;;;;;;;;;5027526;28;20398;-64
2022/04/01 13:35:32;;;;;;;8.68;1.90;;;;;;;;;;5025366;28;20059;-64
2022/04/01 13:37:58;;;;;;;11.30;1.67;;;;;;;;;;5026670;28;20047;-64
2022/04/01 13:40:25;;;;;;;13.70;1.85;;;;;;;;;;5025451;28;20140;-64
2022/04/01 13:42:52;;;;;;;5.28;1.75;;;;;;;;;;5026259;28;20042;-64
2022/04/01 13:45:19;;;;;;;9.43;1.30;;;;;;;;;;5026389;28;20041;-65
2022/04/01 13:47:46;;;;;;;7.40;2.33;;;;;;;;;;5024165;28;20041;-65
2022/04/01 13:50:13;;;;;;;14.48;2.05;;;;;;;;;;5026527;28;20087;-65
2022/04/01 13:52:40;;;;;;;17.55;2.50;;;;;;;;;;5025018;28;20828;-65
2022/04/01 13:55:06;;;;;;;6.60;2.35;;;;;;;;;;5027486;28;20044;-65
2022/04/01 13:57:34;;;;;;;10.43;1.98;;;;;;;;;;5025539;28;20071;-64
2022/04/01 14:00:00;;;;;;;6.20;2.10;;;;;;;;;;5027195;28;20049;-64
2022/04/01 14:02:27;;;;;;;10.43;2.25;;;;;;;;;;5024126;28;20398;-65
2022/04/01 14:04:54;;;;;;;13.13;2.47;;;;;;;;;;5024291;28;20045;-65
2022/04/01 14:07:21;;;;;;;8.77;1.70;;;;;;;;;;5023379;28;20897;-65
2022/04/01 14:09:47;;;;;;;7.30;1.65;;;;;;;;;;5023872;28;20033;-63
2022/04/01 14:12:14;;;;;;;7.65;2.00;;;;;;;;;;5020964;28;20604;-64
2022/04/01 14:14:41;;;;;;;4.65;1.23;;;;;;;;;;5021446;28;20033;-65
2022/04/01 14:17:08;;;;;;;5.32;1.42;;;;;;;;;;5023431;28;20567;-64
2022/04/01 14:19:35;;;;;;;6.68;1.70;;;;;;;;;;5024030;28;20116;-65
2022/04/01 14:22:02;;;;;;;9.70;1.55;;;;;;;;;;5024829;28;20457;-64
2022/04/01 14:24:29;;;;;;;5.32;1.33;;;;;;;;;;5023271;28;20087;-65
2022/04/01 14:26:56;;;;;;;4.30;1.10;;;;;;;;;;5025172;28;20033;-64
2022/04/01 14:32:08;;;;;;;4.63;1.35;;;;;;;;;;5029531;28;20087;-65
2022/04/01 14:34:36;;;;;;;2.63;0.82;;;;;;;;;;5028021;28;20458;-64
2022/04/01 14:37:04;;;;;;;3.15;0.88;;;;;;;;;;5027681;28;20093;-64
2022/04/01 14:39:31;;;;;;;11.55;1.25;;;;;;;;;;5027842;28;20226;-65
2022/04/01 14:41:58;;;;;;;5.18;1.00;;;;;;;;;;5028449;28;20490;-66
2022/04/01 14:44:25;;;;;;;3.83;1.00;;;;;;;;;;5027893;28;20044;-64
2022/04/01 14:46:53;;;;;;;12.60;2.78;;;;;;;;;;5026938;28;20126;-64
2022/04/01 14:49:20;;;;;;;3.72;1.25;;;;;;;;;;5028199;28;20042;-64
2022/04/01 14:51:47;;;;;;;6.80;1.20;;;;;;;;;;5026564;28;20258;-65
2022/04/01 14:54:15;;;;;;;3.65;0.75;;;;;;;;;;5043346;28;20118;-65
2022/04/01 14:56:42;;;;;;;2.90;0.82;;;;;;;;;;5025498;28;20041;-64
2022/04/01 14:59:09;;;;;;;5.57;0.60;;;;;;;;;;5025448;28;20049;-64
2022/04/01 15:01:39;;;;;;;2.55;0.60;;;;;;;;;;5024861;28;20514;-64
2022/04/01 15:04:06;;;;;;;1.35;0.50;;;;;;;;;;5024961;28;20062;-64
2022/04/01 15:06:34;;;;;;;1.98;0.68;;;;;;;;;;5025568;28;20048;-64
2022/04/01 15:09:00;;;;;;;4.05;0.90;;;;;;;;;;5027261;28;20065;-64
2022/04/01 15:11:28;;;;;;;3.92;0.50;;;;;;;;;;5024984;28;20934;-63